createdAt,value
2022-09-22T00:02:59.907Z,11.09
2022-09-22T00:06:07.781Z,11.09
2022-09-22T00:09:13.864Z,11.07
2022-09-22T00:12:17.057Z,11.06
2022-09-22T00:15:20.182Z,10.99
2022-09-22T00:18:23.178Z,10.95
2022-09-22T00:21:27.805Z,10.84
2022-09-22T00:24:31.814Z,10.74
2022-09-22T00:27:35.367Z,10.72
2022-09-22T00:30:42.325Z,10.64
2022-09-22T00:33:46.317Z,10.54
2022-09-22T00:36:51.797Z,10.47
2022-09-22T00:39:54.742Z,10.52
2022-09-22T00:43:14.645Z,10.46
2022-09-22T00:46:22.898Z,10.38
2022-09-22T00:49:33.459Z,10.22
2022-09-22T00:52:44.581Z,10.09
2022-09-22T00:55:51.271Z,10.03
2022-09-22T00:59:00.512Z,9.95
2022-09-22T01:02:04.120Z,9.90
2022-09-22T01:05:09.312Z,9.82
2022-09-22T01:08:16.085Z,9.77
2022-09-22T01:11:20.773Z,9.73
2022-09-22T01:14:51.165Z,9.75
2022-09-22T01:18:14.337Z,9.71
2022-09-22T01:21:35.539Z,9.72
2022-09-22T01:24:52.485Z,9.71
2022-09-22T01:28:29.623Z,9.68
2022-09-22T01:31:38.244Z,9.70
2022-09-22T01:34:50.032Z,9.69
2022-09-22T01:38:04.904Z,9.67
2022-09-22T01:41:12.357Z,9.70
2022-09-22T01:44:20.778Z,9.73
2022-09-22T01:47:32.453Z,9.72
2022-09-22T01:50:40.895Z,9.65
2022-09-22T01:53:50.156Z,9.61
2022-09-22T01:56:59.590Z,9.56
2022-09-22T02:00:07.464Z,9.54
2022-09-22T02:03:22.465Z,9.46
2022-09-22T02:06:33.369Z,9.48
2022-09-22T02:09:39.942Z,9.41
2022-09-22T02:12:47.529Z,9.34
2022-09-22T02:16:02.770Z,9.34
2022-09-22T02:19:13.758Z,9.28
2022-09-22T02:22:16.841Z,9.22
2022-09-22T02:25:20.864Z,9.13
2022-09-22T02:28:25.930Z,9.10
2022-09-22T02:31:33.676Z,9.02
2022-09-22T02:34:38.202Z,8.98
2022-09-22T02:37:49.611Z,8.95
2022-09-22T02:41:00.600Z,8.91
2022-09-22T02:44:09.564Z,8.89
2022-09-22T02:47:18.549Z,8.89
2022-09-22T02:50:26.719Z,8.84
2022-09-22T02:53:29.704Z,8.82
2022-09-22T02:56:33.454Z,8.74
2022-09-22T02:59:36.456Z,8.74
2022-09-22T03:02:39.863Z,8.69
2022-09-22T03:05:44.153Z,8.63
2022-09-22T03:08:47.110Z,8.49
2022-09-22T03:11:50.056Z,8.45
2022-09-22T03:14:53.232Z,8.39
2022-09-22T03:17:56.585Z,8.41
2022-09-22T03:21:00.858Z,8.37
2022-09-22T03:24:04.671Z,8.37
2022-09-22T03:27:07.701Z,8.37
2022-09-22T03:30:12.600Z,8.30
2022-09-22T03:33:15.879Z,8.25
2022-09-22T03:36:20.177Z,8.18
2022-09-22T03:39:23.272Z,8.19
2022-09-22T03:42:26.346Z,8.16
2022-09-22T03:45:29.303Z,8.13
2022-09-22T03:48:32.664Z,8.09
2022-09-22T03:51:37.010Z,8.06
2022-09-22T03:54:40.119Z,7.99
2022-09-22T03:57:43.854Z,8.00
2022-09-22T04:00:46.821Z,7.94
2022-09-22T04:03:49.763Z,7.99
2022-09-22T04:06:54.110Z,7.99
2022-09-22T04:09:57.581Z,8.01
2022-09-22T04:13:00.703Z,8.03
2022-09-22T04:16:06.898Z,8.02
2022-09-22T04:19:10.176Z,8.07
2022-09-22T04:22:14.774Z,8.10
2022-09-22T04:25:17.871Z,8.10
2022-09-22T04:28:20.879Z,8.13
2022-09-22T04:31:23.918Z,8.11
2022-09-22T04:34:26.933Z,8.06
2022-09-22T04:37:31.220Z,8.01
2022-09-22T04:40:34.990Z,7.97
2022-09-22T04:43:38.051Z,8.03
2022-09-22T04:46:41.741Z,7.98
2022-09-22T04:49:44.887Z,7.88
2022-09-22T04:52:53.541Z,7.83
2022-09-22T04:55:57.152Z,7.76
2022-09-22T04:59:00.350Z,7.77
2022-09-22T05:02:03.605Z,7.81
2022-09-22T05:05:08.255Z,7.76
2022-09-22T05:08:12.564Z,7.76
2022-09-22T05:11:15.593Z,7.72
2022-09-22T05:14:24.086Z,7.70
2022-09-22T05:17:29.770Z,7.71
2022-09-22T05:20:33.236Z,7.70
2022-09-22T05:23:37.622Z,7.72
2022-09-22T05:26:40.531Z,7.72
2022-09-22T05:29:43.644Z,7.72
2022-09-22T05:32:48.797Z,7.73
2022-09-22T05:35:51.757Z,7.73
2022-09-22T05:38:56.226Z,7.76
2022-09-22T05:42:02.150Z,7.78
2022-09-22T05:45:06.059Z,7.82
2022-09-22T05:48:09.412Z,7.85
2022-09-22T05:51:12.518Z,7.86
2022-09-22T05:54:20.108Z,7.89
2022-09-22T05:57:27.480Z,7.95
2022-09-22T06:00:31.497Z,8.01
2022-09-22T06:03:34.473Z,8.10
2022-09-22T06:06:37.369Z,8.21
2022-09-22T06:09:41.723Z,8.29
2022-09-22T06:12:46.791Z,8.38
2022-09-22T06:15:50.467Z,8.47
2022-09-22T06:18:53.725Z,8.58
2022-09-22T06:21:56.981Z,8.72
2022-09-22T06:25:01.817Z,8.85
2022-09-22T06:28:07.184Z,8.94
2022-09-22T06:31:10.149Z,9.10
2022-09-22T06:34:13.118Z,9.29
2022-09-22T06:37:16.990Z,9.42
2022-09-22T06:40:21.736Z,9.38
2022-09-22T06:43:24.728Z,9.48
2022-09-22T06:46:29.927Z,9.60
2022-09-22T06:49:33.005Z,9.81
2022-09-22T06:52:38.414Z,9.99
2022-09-22T06:55:43.120Z,9.98
2022-09-22T06:59:08.359Z,10.07
2022-09-22T07:02:11.195Z,10.24
2022-09-22T07:05:14.501Z,10.34
2022-09-22T07:08:17.575Z,10.42
2022-09-22T07:11:23.521Z,10.54
2022-09-22T07:14:26.746Z,10.64
2022-09-22T07:17:31.735Z,10.56
2022-09-22T07:20:35.630Z,10.70
2022-09-22T07:23:38.843Z,10.70
2022-09-22T07:26:44.028Z,10.91
2022-09-22T07:29:47.932Z,10.98
2022-09-22T07:32:50.915Z,11.06
2022-09-22T07:36:08.858Z,11.15
2022-09-22T07:39:12.514Z,11.32
2022-09-22T07:42:17.405Z,11.40
2022-09-22T07:45:21.885Z,11.50
2022-09-22T07:48:37.467Z,11.60
2022-09-22T07:51:41.265Z,11.64
2022-09-22T07:54:44.956Z,11.75
2022-09-22T07:57:55.611Z,11.89
2022-09-22T08:00:58.570Z,11.89
2022-09-22T08:04:02.615Z,11.92
2022-09-22T08:07:05.550Z,12.05
2022-09-22T08:10:10.827Z,12.16
2022-09-22T08:13:16.011Z,12.28
2022-09-22T08:16:19.248Z,12.47
2022-09-22T08:19:24.575Z,12.38
2022-09-22T08:22:27.635Z,12.32
2022-09-22T08:25:30.631Z,12.32
2022-09-22T08:28:35.961Z,12.45
2022-09-22T08:31:42.083Z,12.47
2022-09-22T08:34:45.103Z,12.75
2022-09-22T08:37:50.328Z,13.10
2022-09-22T08:41:15.201Z,13.13
2022-09-22T08:44:23.930Z,13.47
2022-09-22T08:47:51.964Z,13.84
2022-09-22T08:51:18.935Z,14.11
2022-09-22T08:54:26.867Z,14.29
2022-09-22T08:57:56.960Z,14.34
2022-09-22T09:01:14.558Z,14.59
2022-09-22T09:04:53.930Z,14.66
2022-09-22T09:08:04.431Z,14.82
2022-09-22T09:11:19.569Z,14.88
2022-09-22T09:14:41.708Z,14.72
2022-09-22T09:17:48.318Z,14.70
2022-09-22T09:20:53.210Z,14.62
2022-09-22T09:27:28.829Z,14.39
2022-09-22T09:30:42.665Z,14.26
2022-09-22T09:33:56.735Z,14.12
2022-09-22T09:37:07.769Z,14.12
2022-09-22T09:40:18.333Z,14.29
2022-09-22T09:43:23.812Z,14.49
2022-09-22T09:46:43.815Z,14.80
2022-09-22T09:49:52.785Z,15.23
2022-09-22T09:52:58.252Z,15.53
2022-09-22T09:56:01.713Z,15.43
2022-09-22T09:59:25.240Z,15.83
2022-09-22T10:02:31.544Z,15.76
2022-09-22T10:05:38.196Z,15.41
2022-09-22T10:08:46.689Z,15.85
2022-09-22T10:12:00.162Z,16.39
2022-09-22T10:15:12.535Z,16.86
2022-09-22T10:18:35.694Z,16.26
2022-09-22T10:21:39.958Z,16.25
2022-09-22T10:24:58.736Z,16.83
2022-09-22T10:28:06.866Z,16.70
2022-09-22T10:31:21.959Z,16.24
2022-09-22T10:34:31.967Z,16.40
2022-09-22T10:37:36.387Z,16.91
2022-09-22T10:40:42.538Z,17.17
2022-09-22T10:43:51.647Z,17.42
2022-09-22T10:47:30.129Z,17.76
2022-09-22T10:50:52.099Z,17.75
2022-09-22T10:54:24.503Z,18.27
2022-09-22T10:58:00.386Z,18.69
2022-09-22T11:01:29.311Z,19.33
2022-09-22T11:04:57.836Z,19.14
2022-09-22T11:08:27.046Z,18.87
2022-09-22T11:11:59.422Z,18.22
2022-09-22T11:15:19.845Z,18.56
2022-09-22T11:18:58.188Z,18.73
2022-09-22T11:22:22.249Z,18.85
2022-09-22T11:25:49.087Z,18.50
2022-09-22T11:29:23.293Z,18.50
2022-09-22T11:33:02.248Z,17.88
2022-09-22T11:36:21.619Z,17.31
2022-09-22T11:39:41.055Z,17.39
2022-09-22T11:42:59.435Z,18.05
2022-09-22T11:46:17.536Z,18.77
2022-09-22T11:49:36.654Z,18.93
2022-09-22T11:53:18.086Z,18.92
2022-09-22T11:56:35.311Z,19.26
2022-09-22T11:59:44.634Z,19.33
2022-09-22T12:02:56.108Z,19.28
2022-09-22T12:06:08.474Z,19.14
2022-09-22T12:09:23.546Z,19.56
2022-09-22T12:12:29.505Z,20.06
2022-09-22T12:15:39.063Z,20.08
2022-09-22T12:18:49.883Z,20.19
2022-09-22T12:21:59.726Z,20.55
2022-09-22T12:25:02.699Z,20.47
2022-09-22T12:28:05.644Z,20.06
2022-09-22T12:31:12.986Z,20.03
2022-09-22T12:34:22.886Z,20.25
2022-09-22T12:37:30.478Z,20.30
2022-09-22T12:40:37.806Z,20.34
2022-09-22T12:43:41.659Z,20.47
2022-09-22T12:46:45.325Z,20.72
2022-09-22T12:49:57.075Z,20.59
2022-09-22T12:53:04.892Z,20.17
2022-09-22T12:56:47.073Z,20.32
2022-09-22T13:00:20.921Z,20.35
2022-09-22T13:03:49.634Z,20.37
2022-09-22T13:07:00.650Z,19.52
2022-09-22T13:10:57.931Z,19.65
2022-09-22T13:14:02.438Z,19.68
2022-09-22T13:17:42.936Z,19.45
2022-09-22T13:20:47.420Z,20.05
2022-09-22T13:23:59.826Z,20.65
2022-09-22T13:27:05.894Z,20.22
2022-09-22T13:30:14.017Z,20.21
2022-09-22T13:33:23.298Z,20.38
2022-09-22T13:36:28.781Z,20.50
2022-09-22T13:39:35.193Z,20.51
2022-09-22T13:42:38.534Z,20.77
2022-09-22T13:45:46.699Z,20.53
2022-09-22T13:48:51.943Z,20.55
2022-09-22T13:52:00.421Z,20.75
2022-09-22T13:55:11.502Z,20.53
2022-09-22T13:58:16.558Z,21.47
2022-09-22T14:01:26.704Z,22.08
2022-09-22T14:04:29.772Z,22.51
2022-09-22T14:07:45.166Z,22.67
2022-09-22T14:10:53.274Z,22.50
2022-09-22T14:14:01.486Z,21.89
2022-09-22T14:17:09.731Z,20.82
2022-09-22T14:20:16.439Z,20.93
2022-09-22T14:23:29.128Z,21.46
2022-09-22T14:26:37.544Z,20.92
2022-09-22T14:29:41.590Z,21.12
2022-09-22T14:32:50.270Z,21.34
2022-09-22T14:36:01.317Z,21.24
2022-09-22T14:39:10.257Z,21.26
2022-09-22T14:42:21.191Z,21.22
2022-09-22T14:45:27.229Z,20.34
2022-09-22T14:48:34.067Z,19.26
2022-09-22T14:51:37.391Z,19.27
2022-09-22T14:54:40.702Z,19.14
2022-09-22T14:57:49.962Z,19.22
2022-09-22T15:01:14.830Z,19.15
2022-09-22T15:04:28.891Z,18.66
2022-09-22T15:07:35.855Z,18.66
2022-09-22T15:10:40.819Z,18.51
2022-09-22T15:13:46.278Z,18.35
2022-09-22T15:16:49.362Z,18.31
2022-09-22T15:19:58.446Z,18.13
2022-09-22T15:23:01.738Z,17.87
2022-09-22T15:26:05.553Z,17.95
2022-09-22T15:29:15.867Z,17.87
2022-09-22T15:32:19.103Z,17.71
2022-09-22T15:35:27.246Z,17.77
2022-09-22T15:38:35.086Z,17.63
2022-09-22T15:41:38.750Z,17.63
2022-09-22T15:44:42.143Z,17.62
2022-09-22T15:47:46.236Z,17.55
2022-09-22T15:50:51.254Z,17.30
2022-09-22T15:53:54.178Z,17.24
2022-09-22T15:57:00.445Z,17.15
2022-09-22T16:00:14.362Z,17.04
2022-09-22T16:03:22.502Z,17.05
2022-09-22T16:06:27.115Z,16.92
2022-09-22T16:09:30.221Z,16.74
2022-09-22T16:12:33.262Z,16.59
2022-09-22T16:15:36.311Z,16.47
2022-09-22T16:18:41.779Z,16.19
2022-09-22T16:21:54.148Z,15.83
2022-09-22T16:24:57.524Z,15.71
2022-09-22T16:28:00.989Z,15.61
2022-09-22T16:31:04.556Z,15.59
2022-09-22T16:34:10.678Z,15.64
2022-09-22T16:37:16.001Z,15.47
2022-09-22T16:40:19.927Z,15.31
2022-09-22T16:43:22.891Z,15.01
2022-09-22T16:46:28.002Z,14.82
2022-09-22T16:49:34.004Z,14.66
2022-09-22T16:52:40.448Z,14.44
2022-09-22T16:55:49.205Z,14.40
2022-09-22T16:58:53.316Z,14.15
2022-09-22T17:01:57.034Z,13.99
2022-09-22T17:05:00.017Z,13.88
2022-09-22T17:08:06.969Z,13.68
2022-09-22T17:11:12.137Z,13.62
2022-09-22T17:14:17.194Z,13.58
2022-09-22T17:17:20.231Z,13.54
2022-09-22T17:20:24.603Z,13.41
2022-09-22T17:23:28.958Z,13.26
2022-09-22T17:26:35.343Z,13.10
2022-09-22T17:29:39.003Z,12.95
2022-09-22T17:32:41.990Z,12.79
2022-09-22T17:35:44.977Z,12.60
2022-09-22T17:38:51.514Z,12.60
2022-09-22T17:41:55.028Z,12.46
2022-09-22T17:44:58.088Z,12.37
2022-09-22T17:48:18.962Z,12.27
2022-09-22T17:51:48.411Z,12.21
2022-09-22T17:55:08.987Z,12.13
2022-09-22T17:58:11.935Z,12.02
2022-09-22T18:01:15.069Z,11.98
2022-09-22T18:04:18.038Z,11.96
2022-09-22T18:07:23.847Z,11.86
2022-09-22T18:10:32.379Z,11.87
2022-09-22T18:13:39.154Z,11.86
2022-09-22T18:16:43.697Z,11.78
2022-09-22T18:19:48.346Z,11.61
2022-09-22T18:22:51.388Z,11.52
2022-09-22T18:25:55.692Z,11.46
2022-09-22T18:28:59.141Z,11.48
2022-09-22T18:32:03.853Z,11.44
2022-09-22T18:35:08.466Z,11.42
2022-09-22T18:38:12.125Z,11.31
2022-09-22T18:41:19.696Z,11.20
2022-09-22T18:44:23.523Z,11.11
2022-09-22T18:47:26.601Z,11.03
2022-09-22T18:50:31.149Z,11.04
2022-09-22T18:53:34.189Z,10.92
2022-09-22T18:56:41.149Z,10.91
2022-09-22T18:59:44.291Z,10.84
2022-09-22T19:02:48.122Z,10.87
2022-09-22T19:05:51.467Z,10.79
2022-09-22T19:08:54.570Z,10.78
2022-09-22T19:11:59.854Z,10.84
2022-09-22T19:15:03.307Z,10.92
2022-09-22T19:18:07.526Z,10.84
2022-09-22T19:21:14.282Z,10.70
2022-09-22T19:24:17.687Z,10.63
2022-09-22T19:27:22.603Z,10.54
2022-09-22T19:30:28.582Z,10.49
2022-09-22T19:33:34.309Z,10.34
2022-09-22T19:36:38.688Z,10.25
2022-09-22T19:39:43.076Z,10.18
2022-09-22T19:42:48.707Z,10.17
2022-09-22T19:45:52.661Z,10.19
2022-09-22T19:48:57.188Z,10.10
2022-09-22T19:52:00.289Z,10.02
2022-09-22T19:55:03.643Z,9.96
2022-09-22T19:58:08.165Z,9.84
2022-09-22T20:01:11.606Z,9.83
2022-09-22T20:04:17.869Z,9.93
2022-09-22T20:07:20.848Z,9.83
2022-09-22T20:10:24.251Z,9.76
2022-09-22T20:13:46.226Z,9.73
2022-09-22T20:16:51.720Z,9.67
2022-09-22T20:19:55.315Z,9.60
2022-09-22T20:23:00.291Z,9.57
2022-09-22T20:26:03.635Z,9.59
2022-09-22T20:29:08.019Z,9.51
2022-09-22T20:32:11.484Z,9.47
2022-09-22T20:35:17.959Z,9.44
2022-09-22T20:38:21.016Z,9.38
2022-09-22T20:41:24.972Z,9.31
2022-09-22T20:44:29.310Z,9.25
2022-09-22T20:47:32.863Z,9.24
2022-09-22T20:50:36.148Z,9.14
2022-09-22T20:53:39.567Z,9.08
2022-09-22T20:56:43.130Z,9.07
2022-09-22T20:59:47.587Z,9.06
2022-09-22T21:02:52.269Z,9.03
2022-09-22T21:06:00.265Z,9.01
2022-09-22T21:09:21.099Z,8.96
2022-09-22T21:12:30.053Z,8.92
2022-09-22T21:15:35.581Z,8.88
2022-09-22T21:18:40.023Z,8.92
2022-09-22T21:21:42.987Z,8.84
2022-09-22T21:24:48.864Z,8.84
2022-09-22T21:27:51.806Z,8.76
2022-09-22T21:31:01.481Z,8.75
2022-09-22T21:34:04.815Z,8.72
2022-09-22T21:37:08.107Z,8.70
2022-09-22T21:40:11.353Z,8.65
2022-09-22T21:43:14.461Z,8.61
2022-09-22T21:46:21.951Z,8.52
2022-09-22T21:49:25.011Z,8.50
2022-09-22T21:52:28.191Z,8.52
2022-09-22T21:55:31.352Z,8.49
2022-09-22T21:58:37.078Z,8.47
2022-09-22T22:01:44.918Z,8.49
2022-09-22T22:04:48.049Z,8.48
2022-09-22T22:07:51.082Z,8.38
2022-09-22T22:11:04.430Z,8.40
2022-09-22T22:14:11.054Z,8.43
2022-09-22T22:17:15.642Z,8.42
2022-09-22T22:20:18.564Z,8.31
2022-09-22T22:23:21.955Z,8.32
2022-09-22T22:26:26.810Z,8.25
2022-09-22T22:29:32.242Z,8.16
2022-09-22T22:32:37.068Z,8.16
2022-09-22T22:35:39.987Z,8.15
2022-09-22T22:38:44.835Z,8.08
2022-09-22T22:41:48.653Z,8.05
2022-09-22T22:44:51.675Z,8.03
2022-09-22T22:47:56.244Z,8.00
2022-09-22T22:51:03.470Z,8.00
2022-09-22T22:54:10.859Z,7.94
2022-09-22T22:57:13.862Z,7.92
2022-09-22T23:00:16.993Z,7.87
2022-09-22T23:03:21.721Z,7.81
2022-09-22T23:06:27.298Z,7.80
2022-09-22T23:09:30.242Z,7.84
2022-09-22T23:12:34.547Z,7.83
2022-09-22T23:15:37.526Z,7.81
2022-09-22T23:18:43.561Z,7.81
2022-09-22T23:21:47.116Z,7.73
2022-09-22T23:24:50.032Z,7.66
2022-09-22T23:27:53.649Z,7.70
2022-09-22T23:31:02.811Z,7.76
2022-09-22T23:34:07.182Z,7.68
2022-09-22T23:37:10.555Z,7.65
2022-09-22T23:40:13.541Z,7.64
2022-09-22T23:43:17.038Z,7.62
2022-09-22T23:46:21.206Z,7.58
2022-09-22T23:49:25.712Z,7.53
2022-09-22T23:52:28.666Z,7.42
2022-09-22T23:55:32.898Z,7.48
2022-09-22T23:58:38.021Z,7.47
